Time;durP1;ratioP1;P1;durP2;ratioP2;P2;SDS_P1;SDS_P2;PMS_P1;PMS_P2;Temp;Humidity;BMP_temperature;BMP_pressure;BME280_temperature;BME280_humidity;BME280_pressure;Samples;Min_cycle;Max_cycle;Signal;HPM_P1;HPM_P2
2021/12/19 00:02:20;;;;;;;19.35;9.63;;;4.10;99.60;;;;;;5028155;28;20056;-75
2021/12/19 00:08:50;;;;;;;16.23;7.78;;;3.60;99.90;;;;;;5026006;28;20048;-75
2021/12/19 00:11:55;;;;;;;18.52;9.18;;;3.50;99.90;;;;;;5028382;28;20072;-75
2021/12/19 00:15:01;;;;;;;20.92;10.60;;;3.40;99.90;;;;;;5028391;28;20053;-74
2021/12/19 00:18:05;;;;;;;23.33;11.77;;;3.50;99.90;;;;;;5028999;28;20052;-75
2021/12/19 00:21:11;;;;;;;17.30;9.23;;;3.50;99.90;;;;;;5027128;28;20069;-74
2021/12/19 00:24:14;;;;;;;20.85;9.77;;;3.40;99.90;;;;;;5030114;28;20040;-75
2021/12/19 00:27:18;;;;;;;22.70;9.85;;;3.40;99.90;;;;;;5033359;28;20492;-75
2021/12/19 00:30:22;;;;;;;15.38;8.30;;;3.40;99.90;;;;;;5032193;28;20132;-75
2021/12/19 00:33:27;;;;;;;18.98;9.52;;;3.30;99.90;;;;;;5031442;28;20040;-75
2021/12/19 00:36:31;;;;;;;14.70;8.25;;;3.20;99.90;;;;;;5032826;28;20040;-75
2021/12/19 00:39:35;;;;;;;15.27;7.80;;;3.20;99.90;;;;;;5032456;28;20045;-74
2021/12/19 00:42:40;;;;;;;14.63;8.30;;;3.20;99.90;;;;;;5028383;28;20412;-75
2021/12/19 00:45:43;;;;;;;18.92;8.20;;;3.30;99.90;;;;;;5029377;28;20057;-75
2021/12/19 00:48:50;;;;;;;14.45;7.93;;;3.40;99.90;;;;;;5032328;28;20047;-74
2021/12/19 00:51:54;;;;;;;18.77;10.05;;;3.50;99.90;;;;;;5031873;28;20079;-74
2021/12/19 00:54:58;;;;;;;22.17;9.57;;;3.60;99.90;;;;;;5032339;28;20136;-74
2021/12/19 00:58:04;;;;;;;20.33;9.70;;;3.40;99.90;;;;;;5032027;28;20081;-74
2021/12/19 01:01:09;;;;;;;13.77;8.20;;;3.30;99.90;;;;;;5029876;28;20052;-74
2021/12/19 01:04:17;;;;;;;12.27;7.13;;;3.10;99.90;;;;;;5031939;28;20412;-74
2021/12/19 01:07:22;;;;;;;16.08;8.20;;;3.00;99.90;;;;;;5031029;28;20036;-74
2021/12/19 01:10:26;;;;;;;43.60;33.17;;;2.90;99.90;;;;;;5031349;28;20049;-74
2021/12/19 01:13:30;;;;;;;24.35;16.50;;;2.90;99.90;;;;;;5026176;28;20044;-74
2021/12/19 01:16:35;;;;;;;13.73;8.20;;;2.80;99.90;;;;;;5032028;28;20040;-75
2021/12/19 01:19:39;;;;;;;11.80;6.63;;;2.80;99.90;;;;;;5030317;28;20491;-74
2021/12/19 01:22:44;;;;;;;11.32;6.22;;;2.80;99.90;;;;;;5028155;28;20056;-75
2021/12/19 01:25:49;;;;;;;14.20;8.27;;;2.80;99.90;;;;;;5031607;28;20057;-74
2021/12/19 01:28:53;;;;;;;15.13;7.75;;;2.90;99.90;;;;;;5029254;28;20605;-74
2021/12/19 01:31:57;;;;;;;14.73;7.40;;;3.00;99.90;;;;;;5030292;28;20048;-74
2021/12/19 01:35:01;;;;;;;14.63;8.02;;;3.00;99.90;;;;;;5031143;28;20040;-74
2021/12/19 01:38:07;;;;;;;21.95;11.75;;;3.00;99.90;;;;;;5031697;28;20044;-74
2021/12/19 01:41:13;;;;;;;21.30;10.73;;;2.80;99.90;;;;;;5030552;28;20040;-74
2021/12/19 01:44:17;;;;;;;16.65;9.55;;;2.60;99.90;;;;;;5030614;28;20048;-74
2021/12/19 01:47:21;;;;;;;11.82;7.18;;;2.50;99.90;;;;;;5030693;28;20048;-74
2021/12/19 01:50:27;;;;;;;18.98;10.00;;;2.20;99.90;;;;;;5028604;28;20044;-75
2021/12/19 01:53:31;;;;;;;20.65;10.63;;;1.90;99.90;;;;;;5025940;28;20052;-75
2021/12/19 01:56:35;;;;;;;16.20;9.73;;;1.70;99.90;;;;;;5027596;28;20047;-74
2021/12/19 01:59:39;;;;;;;16.85;8.32;;;1.60;99.90;;;;;;5030786;28;20040;-74
2021/12/19 02:02:43;;;;;;;19.33;8.70;;;1.50;99.90;;;;;;5030353;28;20072;-74
2021/12/19 02:05:47;;;;;;;21.38;12.05;;;1.50;99.90;;;;;;5031297;28;20041;-74
2021/12/19 02:08:55;;;;;;;19.17;10.50;;;1.50;99.90;;;;;;5028934;28;20047;-75
2021/12/19 02:11:59;;;;;;;21.40;10.65;;;1.40;99.90;;;;;;5029255;28;20064;-74
2021/12/19 02:15:04;;;;;;;20.40;10.07;;;1.40;99.90;;;;;;5030767;28;20164;-75
2021/12/19 02:18:16;;;;;;;24.88;14.93;;;1.40;99.90;;;;;;5030567;28;20036;-74
2021/12/19 02:21:20;;;;;;;24.00;11.88;;;1.40;99.90;;;;;;5027010;28;20531;-74
2021/12/19 02:24:25;;;;;;;21.42;10.40;;;1.50;99.90;;;;;;5030766;28;20400;-74
2021/12/19 02:27:29;;;;;;;17.83;10.50;;;1.50;99.90;;;;;;5030952;28;20033;-74
2021/12/19 02:30:33;;;;;;;17.05;9.75;;;1.50;99.90;;;;;;5042331;28;20048;-74
2021/12/19 02:33:42;;;;;;;22.73;11.40;;;1.60;99.90;;;;;;5037780;28;20044;-74
2021/12/19 02:37:06;;;;;;;19.13;10.30;;;1.60;99.90;;;;;;5027596;28;20052;-75
2021/12/19 02:50:13;;;;;;;22.40;12.27;;;1.60;99.90;;;;;;5029081;28;20029;-75
2021/12/19 02:53:30;;;;;;;21.77;9.98;;;1.60;99.90;;;;;;5029299;28;20064;-75
2021/12/19 02:56:34;;;;;;;20.42;10.73;;;1.60;99.90;;;;;;5029582;28;20483;-74
2021/12/19 02:59:38;;;;;;;10.15;5.47;;;1.60;99.90;;;;;;5026023;28;20052;-74
2021/12/19 03:02:42;;;;;;;9.82;6.22;;;1.60;99.90;;;;;;5030019;28;20400;-74
2021/12/19 03:05:47;;;;;;;25.50;12.77;;;1.70;99.90;;;;;;5026847;28;20040;-74
2021/12/19 03:08:51;;;;;;;12.98;7.60;;;1.70;99.90;;;;;;5029210;28;20428;-74
2021/12/19 03:12:26;;;;;;;12.55;6.57;;;1.80;99.90;;;;;;5029078;28;20052;-74
2021/12/19 03:18:52;;;;;;;22.52;12.60;;;1.90;99.90;;;;;;5026891;28;20069;-75
2021/12/19 03:21:58;;;;;;;72.93;33.60;;;1.90;99.90;;;;;;5029446;28;20052;-74
2021/12/19 03:25:02;;;;;;;12.18;4.75;;;1.90;99.90;;;;;;5028898;28;20048;-74
2021/12/19 03:28:09;;;;;;;6.25;3.72;;;1.90;99.90;;;;;;5028568;28;20036;-74
2021/12/19 03:31:14;;;;;;;9.30;3.67;;;1.90;99.90;;;;;;5028585;28;20046;-74
2021/12/19 03:34:18;;;;;;;5.82;3.95;;;1.80;99.90;;;;;;5029699;28;20038;-75
2021/12/19 03:37:23;;;;;;;4.95;3.17;;;1.80;99.90;;;;;;5022548;28;20044;-74
2021/12/19 03:40:39;;;;;;;9.40;5.10;;;1.80;99.90;;;;;;5023822;28;20052;-74
2021/12/19 03:43:44;;;;;;;7.97;4.40;;;1.80;99.90;;;;;;5025956;28;20042;-75
2021/12/19 03:46:48;;;;;;;6.47;4.03;;;1.80;99.90;;;;;;5026147;28;20033;-74
2021/12/19 03:49:53;;;;;;;11.68;6.80;;;1.80;99.90;;;;;;5028356;28;20398;-75
2021/12/19 03:52:56;;;;;;;16.08;7.25;;;1.80;99.90;;;;;;5029198;28;20507;-74
2021/12/19 03:56:01;;;;;;;22.52;12.50;;;1.60;99.90;;;;;;5028169;28;20052;-74
2021/12/19 03:59:05;;;;;;;32.65;18.77;;;1.60;99.90;;;;;;5027570;28;20040;-74
2021/12/19 04:02:11;;;;;;;32.30;15.55;;;1.40;99.90;;;;;;5029314;28;20044;-74
2021/12/19 04:05:15;;;;;;;27.08;15.05;;;1.30;99.90;;;;;;5028805;28;20479;-74
2021/12/19 04:08:20;;;;;;;30.23;14.48;;;1.20;99.90;;;;;;5028211;28;20057;-74
2021/12/19 04:11:25;;;;;;;27.40;13.93;;;1.10;99.90;;;;;;5029092;28;20033;-75
2021/12/19 04:14:29;;;;;;;30.52;13.27;;;1.10;99.90;;;;;;5028863;28;20538;-75
2021/12/19 04:17:34;;;;;;;22.25;10.95;;;1.10;99.90;;;;;;5024059;28;20036;-75
2021/12/19 04:20:37;;;;;;;15.68;8.90;;;1.00;99.90;;;;;;5027141;28;20048;-74
2021/12/19 04:23:42;;;;;;;15.10;7.57;;;1.00;99.90;;;;;;5028909;28;20041;-74
2021/12/19 04:26:46;;;;;;;17.63;8.65;;;1.10;99.90;;;;;;5028318;28;20393;-74
2021/12/19 04:29:50;;;;;;;21.13;11.02;;;1.10;99.90;;;;;;5025844;28;20515;-75
2021/12/19 04:33:08;;;;;;;25.90;10.20;;;1.00;99.90;;;;;;5027123;28;20044;-74
2021/12/19 04:36:20;;;;;;;24.00;12.48;;;1.00;99.90;;;;;;5028926;28;20045;-74
2021/12/19 04:39:50;;;;;;;19.98;11.82;;;1.00;99.90;;;;;;5026690;28;20040;-74
2021/12/19 04:53:09;;;;;;;24.98;13.20;;;1.20;99.90;;;;;;5025570;28;20504;-74
2021/12/19 05:02:58;;;;;;;;;;;1.10;99.90;;;;;;5024489;28;20121;-74
2021/12/19 05:06:18;;;;;;;;;;;1.00;99.90;;;;;;5027773;28;19924;-74
2021/12/19 05:16:08;;;;;;;18.02;10.65;;;0.80;99.90;;;;;;5031499;28;20507;-75
2021/12/19 05:19:30;;;;;;;19.33;10.35;;;0.80;99.90;;;;;;5031461;28;20040;-74
2021/12/19 05:22:41;;;;;;;20.98;11.50;;;0.80;99.90;;;;;;5027330;28;20243;-74
2021/12/19 05:25:45;;;;;;;18.33;10.48;;;0.80;99.90;;;;;;5028549;28;20049;-74
2021/12/19 05:28:52;;;;;;;19.02;10.05;;;0.60;99.90;;;;;;5030434;28;20388;-74
2021/12/19 05:31:56;;;;;;;18.73;9.93;;;0.60;99.90;;;;;;5030885;28;20056;-74
2021/12/19 05:35:00;;;;;;;17.92;9.43;;;0.70;99.90;;;;;;5029355;28;20064;-74
2021/12/19 05:47:55;;;;;;;17.92;9.68;;;1.00;99.90;;;;;;5030811;28;20092;-75
2021/12/19 05:51:00;;;;;;;15.82;8.55;;;1.10;99.90;;;;;;5030211;28;20064;-74
2021/12/19 05:54:09;;;;;;;20.23;9.45;;;1.20;99.90;;;;;;5031921;28;20052;-74
2021/12/19 05:57:15;;;;;;;25.30;12.82;;;1.20;99.90;;;;;;5028935;28;20045;-74
2021/12/19 06:00:20;;;;;;;20.00;11.50;;;1.30;99.90;;;;;;5023812;28;20373;-74
2021/12/19 06:03:24;;;;;;;21.88;12.38;;;1.20;99.90;;;;;;5029758;28;20168;-74
2021/12/19 06:06:28;;;;;;;17.80;10.77;;;1.20;99.90;;;;;;5031084;28;20036;-74
2021/12/19 06:09:31;;;;;;;26.92;13.77;;;1.10;99.90;;;;;;5024961;28;20044;-74
2021/12/19 06:12:37;;;;;;;22.67;10.65;;;1.10;99.90;;;;;;5030832;28;20044;-74
2021/12/19 06:15:42;;;;;;;17.27;9.57;;;1.10;99.90;;;;;;5027495;28;20064;-74
2021/12/19 06:18:47;;;;;;;14.30;7.97;;;1.10;99.90;;;;;;5029188;28;20048;-74
2021/12/19 06:21:51;;;;;;;15.25;8.40;;;1.00;99.90;;;;;;5029392;28;20056;-74
2021/12/19 06:24:55;;;;;;;13.88;8.32;;;1.00;99.90;;;;;;5030827;28;20049;-74
2021/12/19 06:28:00;;;;;;;15.55;8.73;;;1.00;99.90;;;;;;5028854;28;20041;-74
2021/12/19 06:31:03;;;;;;;12.57;5.93;;;1.00;99.90;;;;;;5029339;28;20044;-74
2021/12/19 06:34:07;;;;;;;15.45;8.85;;;0.90;99.90;;;;;;5031200;28;20060;-74
2021/12/19 06:37:12;;;;;;;13.00;7.75;;;1.00;99.90;;;;;;5028788;28;20060;-74
2021/12/19 06:40:21;;;;;;;17.05;8.90;;;1.00;99.90;;;;;;5029615;28;20056;-74
2021/12/19 06:43:26;;;;;;;16.60;8.93;;;0.90;99.90;;;;;;5024868;28;20049;-74
2021/12/19 06:46:31;;;;;;;17.25;10.10;;;0.80;99.90;;;;;;5029116;28;20036;-74
2021/12/19 06:49:34;;;;;;;18.02;8.52;;;0.80;99.90;;;;;;5026189;28;20404;-74
2021/12/19 06:52:40;;;;;;;14.73;8.02;;;0.70;99.90;;;;;;5030551;28;20048;-74
2021/12/19 06:55:44;;;;;;;13.18;7.13;;;0.70;99.90;;;;;;5029779;28;20044;-74
2021/12/19 06:58:48;;;;;;;13.77;7.10;;;0.70;99.90;;;;;;5026767;28;20523;-74
2021/12/19 07:01:52;;;;;;;13.48;7.00;;;0.80;99.90;;;;;;5029782;28;20456;-74
2021/12/19 07:04:58;;;;;;;15.15;8.40;;;0.80;99.90;;;;;;5029134;28;20380;-73
2021/12/19 07:08:02;;;;;;;21.90;10.05;;;0.90;99.90;;;;;;5028920;28;20044;-74
2021/12/19 07:11:06;;;;;;;19.58;11.18;;;0.80;99.90;;;;;;5030076;28;20056;-73
2021/12/19 07:14:10;;;;;;;19.65;11.27;;;0.80;99.90;;;;;;5030140;28;20053;-74
2021/12/19 07:17:14;;;;;;;20.20;9.73;;;2.10;99.90;;;;;;5026049;28;20048;-74
2021/12/19 07:20:18;;;;;;;22.00;11.13;;;4.90;99.90;;;;;;5026228;28;20060;-74
2021/12/19 07:23:22;;;;;;;21.15;11.10;;;7.60;99.90;;;;;;5024001;28;20491;-74
2021/12/19 07:26:26;;;;;;;19.38;11.77;;;9.10;99.90;;;;;;5028771;28;20036;-75
2021/12/19 07:29:31;;;;;;;29.15;14.18;;;10.50;98.90;;;;;;5028740;28;20511;-75
2021/12/19 07:32:36;;;;;;;30.60;19.45;;;12.40;95.60;;;;;;5025149;28;20053;-75
2021/12/19 07:35:45;;;;;;;22.92;15.20;;;13.90;93.40;;;;;;5027336;28;20423;-75
2021/12/19 07:38:59;;;;;;;21.98;14.50;;;15.40;91.00;;;;;;5024693;28;20041;-75
2021/12/19 07:42:10;;;;;;;22.70;14.65;;;16.60;86.20;;;;;;5029236;28;20124;-75
2021/12/19 07:45:17;;;;;;;21.00;13.95;;;17.30;82.80;;;;;;5022441;28;20426;-76
2021/12/19 07:48:22;;;;;;;55.08;32.78;;;17.40;79.30;;;;;;5023089;28;20033;-75
2021/12/19 07:51:26;;;;;;;43.80;27.00;;;18.40;78.70;;;;;;5026887;28;20057;-75
2021/12/19 07:54:30;;;;;;;49.60;29.85;;;19.50;75.60;;;;;;5029683;28;20052;-75
2021/12/19 07:57:34;;;;;;;58.55;36.97;;;20.50;72.80;;;;;;5024810;28;20052;-75
2021/12/19 08:00:39;;;;;;;23.00;13.23;;;20.70;70.60;;;;;;5024723;28;20036;-73
2021/12/19 08:03:43;;;;;;;21.98;12.23;;;21.30;69.10;;;;;;5026211;28;20218;-74
2021/12/19 08:06:47;;;;;;;14.52;10.48;;;21.90;65.60;;;;;;5028056;28;20483;-74
2021/12/19 08:13:14;;;;;;;17.48;13.10;;;21.80;63.50;;;;;;5032752;28;20531;-74
2021/12/19 08:16:18;;;;;;;16.75;12.52;;;22.70;61.80;;;;;;5028731;28;20091;-74
2021/12/19 08:19:22;;;;;;;19.30;13.38;;;23.30;61.30;;;;;;5028427;28;20045;-74
2021/12/19 08:22:29;;;;;;;21.23;14.35;;;24.00;59.90;;;;;;5028497;28;20049;-73
2021/12/19 08:25:32;;;;;;;18.27;13.98;;;23.70;57.50;;;;;;5026205;28;20033;-74
2021/12/19 08:28:36;;;;;;;22.13;14.93;;;21.60;61.10;;;;;;5023716;28;20048;-74
2021/12/19 08:31:41;;;;;;;22.42;15.50;;;21.40;60.70;;;;;;5025237;28;20543;-74
2021/12/19 08:34:45;;;;;;;23.63;17.25;;;21.10;61.10;;;;;;5026094;28;20047;-74
2021/12/19 08:37:49;;;;;;;21.48;14.90;;;21.30;60.50;;;;;;5026498;28;20396;-74
2021/12/19 08:40:53;;;;;;;22.27;16.30;;;22.10;60.10;;;;;;5028685;28;20381;-74
2021/12/19 08:43:57;;;;;;;28.83;17.98;;;22.10;59.00;;;;;;5031370;28;20053;-73
2021/12/19 08:47:02;;;;;;;27.63;18.98;;;23.00;58.80;;;;;;5030986;28;20037;-74
2021/12/19 08:50:09;;;;;;;28.92;21.83;;;24.10;57.50;;;;;;5031585;28;20388;-74
2021/12/19 08:53:13;;;;;;;27.13;19.67;;;25.60;57.00;;;;;;5031942;28;20048;-74
2021/12/19 08:56:17;;;;;;;23.75;17.25;;;26.00;55.50;;;;;;5028851;28;20044;-74
2021/12/19 08:59:21;;;;;;;22.65;17.58;;;27.00;54.70;;;;;;5031596;28;20045;-74
2021/12/19 09:02:25;;;;;;;26.20;18.92;;;27.40;53.40;;;;;;5032613;28;20072;-74
2021/12/19 09:05:30;;;;;;;22.92;15.88;;;27.60;54.20;;;;;;5030713;28;20044;-74
2021/12/19 09:08:34;;;;;;;22.48;16.35;;;25.70;53.50;;;;;;5029782;28;20044;-74
2021/12/19 09:11:38;;;;;;;24.73;16.42;;;25.80;53.50;;;;;;5028537;28;20048;-73
2021/12/19 09:14:42;;;;;;;21.40;16.13;;;24.40;53.60;;;;;;5032094;28;20419;-72
2021/12/19 09:17:46;;;;;;;20.23;15.52;;;24.40;54.00;;;;;;5028759;28;20049;-73
2021/12/19 09:20:50;;;;;;;20.10;14.65;;;23.40;55.30;;;;;;5029749;28;20052;-74
2021/12/19 09:23:55;;;;;;;20.45;15.10;;;23.70;56.20;;;;;;5031649;28;20044;-74
2021/12/19 09:27:00;;;;;;;20.27;15.82;;;22.90;57.00;;;;;;5031555;28;21392;-75
2021/12/19 09:30:05;;;;;;;23.98;16.52;;;20.40;57.60;;;;;;5031643;28;20048;-73
2021/12/19 09:33:09;;;;;;;21.85;15.65;;;22.20;57.30;;;;;;5032404;28;20471;-73
2021/12/19 09:36:13;;;;;;;21.67;15.77;;;23.80;56.10;;;;;;5031600;28;20040;-74
2021/12/19 09:39:18;;;;;;;21.10;16.13;;;25.00;55.40;;;;;;5030999;28;20040;-73
2021/12/19 09:42:33;;;;;;;19.92;14.70;;;25.40;54.20;;;;;;5029341;28;20404;-73
2021/12/19 09:45:37;;;;;;;21.48;15.70;;;22.90;55.00;;;;;;5038784;28;20033;-75
2021/12/19 09:48:48;;;;;;;19.92;15.88;;;21.50;57.00;;;;;;5027031;28;20048;-75
2021/12/19 09:51:52;;;;;;;22.38;16.20;;;20.80;58.20;;;;;;5031741;28;20431;-75
2021/12/19 09:54:56;;;;;;;22.70;16.63;;;21.50;57.60;;;;;;5029716;28;20072;-72
2021/12/19 09:58:00;;;;;;;24.27;16.23;;;23.10;56.50;;;;;;5030693;28;20048;-75
2021/12/19 10:01:07;;;;;;;23.08;16.75;;;24.20;56.40;;;;;;5031051;28;20751;-75
2021/12/19 10:04:29;;;;;;;19.30;16.30;;;25.30;55.30;;;;;;5023915;28;20041;-72
2021/12/19 10:07:46;;;;;;;19.17;15.32;;;26.60;54.60;;;;;;5027870;28;20507;-73
2021/12/19 10:10:57;;;;;;;20.08;15.65;;;25.70;53.50;;;;;;5028166;28;20048;-75
2021/12/19 10:14:03;;;;;;;23.25;16.77;;;24.20;55.20;;;;;;5031333;28;20048;-75
2021/12/19 10:17:16;;;;;;;21.58;17.13;;;25.60;55.10;;;;;;5030342;28;20079;-75
2021/12/19 10:20:20;;;;;;;22.38;17.58;;;23.80;54.50;;;;;;5029890;28;20052;-74
2021/12/19 10:23:32;;;;;;;22.60;17.88;;;22.00;57.00;;;;;;5030570;28;20075;-74
2021/12/19 10:26:44;;;;;;;24.77;18.13;;;22.70;57.60;;;;;;5030881;28;20041;-74
2021/12/19 10:29:48;;;;;;;22.48;18.05;;;23.10;57.40;;;;;;5025629;28;20049;-74
2021/12/19 10:32:59;;;;;;;26.27;18.77;;;22.10;57.60;;;;;;5028703;28;20067;-75
2021/12/19 10:36:05;;;;;;;26.17;18.47;;;24.10;56.00;;;;;;5030067;28;20048;-73
2021/12/19 10:39:14;;;;;;;22.52;17.50;;;24.80;55.20;;;;;;5029199;28;20052;-75
2021/12/19 10:42:21;;;;;;;23.05;18.15;;;25.70;53.80;;;;;;5029744;28;20045;-75
2021/12/19 10:45:53;;;;;;;24.85;19.35;;;24.40;54.30;;;;;;5030637;28;20392;-74
2021/12/19 10:48:59;;;;;;;28.42;21.25;;;24.20;54.90;;;;;;5035189;28;20049;-75
2021/12/19 10:52:04;;;;;;;23.70;18.90;;;26.80;54.20;;;;;;5029211;28;20064;-75
2021/12/19 10:55:12;;;;;;;27.33;18.98;;;27.80;52.10;;;;;;5029004;28;20064;-74
2021/12/19 10:58:35;;;;;;;25.77;18.75;;;26.50;52.90;;;;;;5030539;28;20061;-73
2021/12/19 11:01:44;;;;;;;23.25;18.17;;;26.60;53.60;;;;;;5030051;28;20440;-74
2021/12/19 11:04:48;;;;;;;22.60;18.20;;;25.70;54.00;;;;;;5026729;28;20057;-74
2021/12/19 11:08:03;;;;;;;24.00;18.83;;;23.80;55.20;;;;;;5030385;28;20049;-74
2021/12/19 11:11:07;;;;;;;27.35;19.58;;;25.10;54.70;;;;;;5028877;28;20037;-74
2021/12/19 11:14:14;;;;;;;26.02;18.73;;;22.60;56.40;;;;;;5029614;28;20491;-74
2021/12/19 11:17:25;;;;;;;29.48;19.20;;;21.50;58.30;;;;;;5029076;28;20583;-74
2021/12/19 11:20:29;;;;;;;24.42;18.92;;;23.50;58.60;;;;;;5027698;28;20113;-74
2021/12/19 11:23:33;;;;;;;23.15;17.88;;;24.60;56.70;;;;;;5024879;28;20039;-74
2021/12/19 11:26:40;;;;;;;20.45;16.80;;;25.90;55.70;;;;;;5025423;28;20040;-74
2021/12/19 11:29:44;;;;;;;22.02;17.08;;;27.20;55.00;;;;;;5026283;28;20099;-74
2021/12/19 11:32:58;;;;;;;19.80;15.50;;;28.20;54.20;;;;;;5027527;28;20048;-75
2021/12/19 11:36:06;;;;;;;21.00;16.35;;;29.20;53.50;;;;;;5028815;28;20052;-75
2021/12/19 11:39:11;;;;;;;22.05;16.50;;;29.70;53.60;;;;;;5026323;28;20052;-74
2021/12/19 11:42:41;;;;;;;20.63;16.15;;;30.30;53.10;;;;;;5029299;28;20404;-75
2021/12/19 11:45:59;;;;;;;19.97;15.17;;;31.00;51.80;;;;;;5025203;28;20490;-75
2021/12/19 11:49:25;;;;;;;21.33;16.38;;;30.60;51.50;;;;;;5028121;28;20056;-75
2021/12/19 11:52:30;;;;;;;17.13;15.13;;;30.50;51.90;;;;;;5024706;28;20507;-75
2021/12/19 11:55:40;;;;;;;17.80;15.45;;;31.80;51.90;;;;;;5029456;28;20064;-75
2021/12/19 11:58:49;;;;;;;16.20;14.13;;;33.00;51.40;;;;;;5025014;28;20092;-75
2021/12/19 12:01:53;;;;;;;15.98;14.23;;;33.60;49.80;;;;;;5029581;28;20048;-75
2021/12/19 12:05:15;;;;;;;16.50;13.48;;;31.30;50.60;;;;;;5028323;28;20048;-74
2021/12/19 12:08:25;;;;;;;21.17;14.68;;;30.60;51.00;;;;;;5025150;28;20396;-74
2021/12/19 12:11:29;;;;;;;19.95;15.82;;;30.50;51.50;;;;;;5024211;28;20044;-74
2021/12/19 12:14:38;;;;;;;18.83;15.40;;;29.80;51.00;;;;;;5023847;28;20048;-74
2021/12/19 12:17:50;;;;;;;19.00;14.80;;;29.60;51.70;;;;;;5030636;28;20052;-74
2021/12/19 12:20:53;;;;;;;19.88;14.55;;;28.00;51.10;;;;;;5030685;28;20404;-74
2021/12/19 12:24:17;;;;;;;18.48;14.68;;;28.30;52.80;;;;;;5032965;28;20511;-74
2021/12/19 12:27:35;;;;;;;17.88;13.73;;;27.60;53.40;;;;;;5032689;28;20036;-74
2021/12/19 12:30:52;;;;;;;19.35;13.50;;;29.20;51.90;;;;;;5030735;28;20124;-75
2021/12/19 12:33:56;;;;;;;19.83;14.13;;;30.30;51.70;;;;;;5030570;28;20044;-75
2021/12/19 12:37:01;;;;;;;18.95;14.27;;;30.10;50.60;;;;;;5033297;28;20310;-75
2021/12/19 12:40:31;;;;;;;16.83;12.75;;;30.20;51.10;;;;;;5031324;28;20595;-75
2021/12/19 12:43:40;;;;;;;14.38;12.13;;;31.60;51.10;;;;;;5027994;28;20044;-75
2021/12/19 12:46:45;;;;;;;15.40;11.57;;;32.60;50.10;;;;;;5029250;28;20049;-75
2021/12/19 12:49:49;;;;;;;11.70;9.77;;;33.30;49.80;;;;;;5030944;28;20400;-75
2021/12/19 12:52:54;;;;;;;11.90;6.60;;;33.90;48.80;;;;;;5031955;28;20061;-75
2021/12/19 12:56:06;;;;;;;8.75;5.63;;;34.20;46.60;;;;;;5032221;28;20040;-75
2021/12/19 12:59:12;;;;;;;5.72;4.88;;;34.20;45.60;;;;;;5032360;28;20045;-75
2021/12/19 13:02:21;;;;;;;7.97;5.47;;;34.20;44.90;;;;;;5032047;28;20044;-75
2021/12/19 13:05:25;;;;;;;6.53;4.40;;;33.80;44.60;;;;;;5025949;28;20519;-75
2021/12/19 13:08:29;;;;;;;7.05;5.05;;;33.50;44.50;;;;;;5030271;28;20412;-75
2021/12/19 13:11:32;;;;;;;6.30;3.67;;;33.40;44.80;;;;;;5031597;28;20039;-75
2021/12/19 13:14:41;;;;;;;5.32;3.13;;;33.50;44.40;;;;;;5028130;28;20060;-75
2021/12/19 13:17:48;;;;;;;5.40;3.30;;;33.50;44.20;;;;;;5029671;28;20052;-75
2021/12/19 13:21:01;;;;;;;7.32;5.90;;;33.30;44.00;;;;;;5030055;28;20048;-75
2021/12/19 13:24:05;;;;;;;4.32;2.75;;;33.40;44.00;;;;;;5031329;28;20032;-75
2021/12/19 13:27:14;;;;;;;2.35;1.73;;;33.40;44.00;;;;;;5030093;28;20056;-75
2021/12/19 13:30:40;;;;;;;3.47;1.83;;;33.20;42.50;;;;;;5030786;28;20495;-75
2021/12/19 13:33:44;;;;;;;3.15;2.10;;;33.20;43.30;;;;;;5030522;28;20056;-75
2021/12/19 13:37:04;;;;;;;1.92;1.55;;;32.70;43.30;;;;;;5031326;28;20041;-75
2021/12/19 13:40:12;;;;;;;2.35;1.70;;;31.60;42.60;;;;;;5023482;28;20029;-74
2021/12/19 13:43:37;;;;;;;2.90;1.50;;;30.90;43.40;;;;;;5029044;28;20048;-75
2021/12/19 13:46:41;;;;;;;14.77;11.48;;;30.70;43.20;;;;;;5027243;28;20535;-75
2021/12/19 13:49:45;;;;;;;8.13;5.75;;;30.90;43.60;;;;;;5030948;28;20053;-75
2021/12/19 13:52:50;;;;;;;6.38;5.25;;;30.80;43.80;;;;;;5029081;28;20499;-75
2021/12/19 13:56:05;;;;;;;4.45;3.38;;;31.00;43.70;;;;;;5030765;28;20053;-75
2021/12/19 13:59:21;;;;;;;5.88;3.10;;;31.10;44.10;;;;;;5030383;28;20033;-75
2021/12/19 14:02:26;;;;;;;3.90;2.17;;;31.10;44.50;;;;;;5031724;28;20048;-75
2021/12/19 14:05:35;;;;;;;5.03;2.10;;;30.70;44.30;;;;;;5027926;28;20033;-75
2021/12/19 14:08:39;;;;;;;5.15;2.17;;;30.50;44.50;;;;;;5029844;28;20036;-75
2021/12/19 14:11:45;;;;;;;3.33;2.22;;;30.00;44.60;;;;;;5028045;28;20053;-74
2021/12/19 14:14:50;;;;;;;5.25;1.80;;;29.50;45.00;;;;;;5030285;28;20045;-74
2021/12/19 14:17:53;;;;;;;4.28;2.08;;;28.70;44.90;;;;;;5030263;28;20144;-74
2021/12/19 14:20:59;;;;;;;3.65;2.00;;;28.20;45.40;;;;;;5028758;28;20040;-74
2021/12/19 14:24:20;;;;;;;5.63;2.17;;;27.70;45.90;;;;;;5030415;28;20044;-74
2021/12/19 14:27:41;;;;;;;5.72;2.40;;;27.40;46.50;;;;;;5028212;28;20048;-74
2021/12/19 14:31:14;;;;;;;3.87;2.43;;;26.80;46.60;;;;;;5029764;28;20056;-74
2021/12/19 14:34:24;;;;;;;5.63;2.50;;;26.10;47.00;;;;;;5023051;28;20287;-74
2021/12/19 14:37:32;;;;;;;5.18;2.50;;;25.90;48.10;;;;;;5030291;28;20493;-74
2021/12/19 14:40:39;;;;;;;5.47;3.30;;;25.70;48.10;;;;;;5025325;28;20032;-74
2021/12/19 14:43:44;;;;;;;7.82;3.30;;;25.30;48.30;;;;;;5027166;28;20048;-74
2021/12/19 14:46:49;;;;;;;7.07;3.55;;;24.90;48.90;;;;;;5027986;28;20049;-74
2021/12/19 14:49:53;;;;;;;6.45;3.80;;;24.20;49.20;;;;;;5029198;28;20056;-74
2021/12/19 14:52:57;;;;;;;5.70;3.97;;;23.60;49.90;;;;;;5028928;28;20048;-73
2021/12/19 14:56:16;;;;;;;4.70;3.58;;;23.10;50.20;;;;;;5030618;28;20048;-73
2021/12/19 14:59:26;;;;;;;5.97;3.80;;;22.60;50.40;;;;;;5029769;28;20052;-74
2021/12/19 15:02:30;;;;;;;5.93;3.50;;;21.90;51.20;;;;;;5029636;28;20052;-74
2021/12/19 15:05:35;;;;;;;13.32;4.32;;;21.40;52.10;;;;;;5026002;28;20044;-74
2021/12/19 15:08:41;;;;;;;5.68;3.80;;;20.70;52.70;;;;;;5029492;28;20052;-75
2021/12/19 15:11:46;;;;;;;6.80;4.68;;;20.10;53.50;;;;;;5028776;28;20048;-75
2021/12/19 15:14:51;;;;;;;8.25;4.20;;;19.60;54.20;;;;;;5029524;28;20053;-75
2021/12/19 15:17:55;;;;;;;6.68;4.10;;;19.10;55.10;;;;;;5029871;28;20053;-75
2021/12/19 15:20:59;;;;;;;7.28;4.22;;;18.50;56.20;;;;;;5028090;28;20052;-75
2021/12/19 15:24:04;;;;;;;7.07;5.05;;;18.00;57.00;;;;;;5029177;28;20048;-75
2021/12/19 15:27:08;;;;;;;11.38;5.43;;;17.30;58.10;;;;;;5030041;28;20045;-75
2021/12/19 15:30:14;;;;;;;11.95;6.88;;;16.70;59.40;;;;;;5026795;28;20048;-71
2021/12/19 15:33:18;;;;;;;11.27;7.03;;;15.90;60.50;;;;;;5020931;28;20045;-71
2021/12/19 15:36:22;;;;;;;9.30;5.95;;;14.80;63.00;;;;;;5029689;28;20413;-71
2021/12/19 15:39:26;;;;;;;10.13;6.53;;;13.80;65.70;;;;;;5026157;28;20048;-71
2021/12/19 15:42:30;;;;;;;21.92;14.02;;;13.00;68.70;;;;;;5028661;28;20040;-71
2021/12/19 15:45:35;;;;;;;15.77;10.88;;;12.40;71.00;;;;;;5025012;28;20032;-71
2021/12/19 15:48:39;;;;;;;13.68;7.45;;;11.80;73.00;;;;;;5028392;28;20396;-71
2021/12/19 15:51:43;;;;;;;13.00;7.22;;;11.40;74.90;;;;;;5024559;28;20080;-72
2021/12/19 15:54:48;;;;;;;20.67;10.70;;;11.10;76.80;;;;;;5029176;28;20052;-76
2021/12/19 15:57:53;;;;;;;14.00;8.27;;;10.90;78.60;;;;;;5028137;28;20056;-75
2021/12/19 16:00:57;;;;;;;11.40;6.65;;;10.60;80.50;;;;;;5028589;28;20053;-75
2021/12/19 16:04:02;;;;;;;14.75;6.97;;;10.40;82.70;;;;;;5028233;28;20068;-75
2021/12/19 16:07:06;;;;;;;12.75;6.78;;;10.30;84.00;;;;;;5029365;28;20076;-71
2021/12/19 16:10:11;;;;;;;17.23;9.82;;;10.10;85.60;;;;;;5026254;28;20515;-71
2021/12/19 16:13:20;;;;;;;20.50;12.73;;;10.00;87.00;;;;;;5023192;28;20045;-71
2021/12/19 16:16:25;;;;;;;20.70;12.98;;;9.80;88.80;;;;;;5029501;28;20053;-71
2021/12/19 16:19:29;;;;;;;18.38;11.73;;;9.70;90.30;;;;;;5026508;28;20044;-73
2021/12/19 16:22:33;;;;;;;32.20;19.73;;;9.60;91.10;;;;;;5023209;28;20044;-72
2021/12/19 16:25:37;;;;;;;27.08;16.40;;;9.50;91.90;;;;;;5016830;28;20056;-72
2021/12/19 16:28:41;;;;;;;35.28;21.20;;;9.50;92.50;;;;;;5024824;28;20392;-73
2021/12/19 16:31:46;;;;;;;33.58;19.88;;;9.40;93.00;;;;;;5025166;28;20519;-72
2021/12/19 16:34:50;;;;;;;22.98;15.10;;;9.30;93.50;;;;;;5026782;28;20052;-76
2021/12/19 16:38:00;;;;;;;29.90;20.10;;;9.30;94.10;;;;;;5028378;28;20487;-76
2021/12/19 16:41:07;;;;;;;20.60;13.93;;;9.30;94.50;;;;;;5027703;28;20499;-73
2021/12/19 16:44:12;;;;;;;21.67;15.02;;;9.30;95.20;;;;;;5021158;28;20045;-72
2021/12/19 16:47:18;;;;;;;21.50;13.30;;;9.30;95.60;;;;;;5028794;28;20051;-77
2021/12/19 16:50:22;;;;;;;23.20;13.43;;;9.30;95.40;;;;;;5022211;28;20044;-76
2021/12/19 16:53:28;;;;;;;35.67;21.15;;;9.10;94.70;;;;;;5027197;28;20403;-76
2021/12/19 16:56:33;;;;;;;23.73;15.50;;;9.00;94.50;;;;;;5025240;28;20040;-73